createdAt,value
2019-01-25T00:00:35.609Z,26.27
2019-01-25T00:03:03.454Z,25.97
2019-01-25T00:05:29.831Z,27.15
2019-01-25T00:07:55.871Z,27.77
2019-01-25T00:10:21.944Z,25.82
2019-01-25T00:12:48.007Z,26.63
2019-01-25T00:15:14.245Z,27.82
2019-01-25T00:17:40.316Z,26.33
2019-01-25T00:20:11.103Z,25.60
2019-01-25T00:22:37.219Z,26.90
2019-01-25T00:25:04.432Z,26.40
2019-01-25T00:27:30.550Z,26.37
2019-01-25T00:29:56.628Z,27.02
2019-01-25T00:32:22.682Z,26.17
2019-01-25T00:34:48.727Z,28.50
2019-01-25T00:37:15.208Z,31.07
2019-01-25T00:39:41.381Z,31.33
2019-01-25T00:42:07.425Z,30.30
2019-01-25T00:44:33.663Z,32.60
2019-01-25T00:46:59.771Z,33.33
2019-01-25T00:49:26.298Z,32.10
2019-01-25T00:51:52.347Z,33.75
2019-01-25T00:54:18.387Z,32.58
2019-01-25T00:56:44.604Z,32.05
2019-01-25T00:59:10.661Z,32.25
2019-01-25T01:01:37.032Z,31.63
2019-01-25T01:04:03.646Z,32.83
2019-01-25T01:06:29.691Z,31.30
2019-01-25T01:08:55.758Z,32.30
2019-01-25T01:11:21.834Z,33.33
2019-01-25T01:13:47.872Z,31.48
2019-01-25T01:16:14.003Z,30.60
2019-01-25T01:18:40.035Z,32.05
2019-01-25T01:21:13.357Z,30.87
2019-01-25T01:23:39.465Z,31.00
2019-01-25T01:26:05.630Z,31.20
2019-01-25T01:28:31.676Z,31.17
2019-01-25T01:30:57.741Z,30.77
2019-01-25T01:33:24.059Z,29.32
2019-01-25T01:35:51.317Z,30.82
2019-01-25T01:38:17.436Z,30.12
2019-01-25T01:40:43.878Z,30.65
2019-01-25T01:43:10.042Z,30.77
2019-01-25T01:45:37.172Z,31.47
2019-01-25T01:48:03.618Z,30.00
2019-01-25T01:50:30.042Z,30.48
2019-01-25T01:53:00.411Z,31.60
2019-01-25T01:55:26.513Z,30.97
2019-01-25T01:57:53.067Z,29.67
2019-01-25T02:00:21.652Z,30.30
2019-01-25T02:02:49.775Z,29.70
2019-01-25T02:05:17.172Z,30.02
2019-01-25T02:07:45.405Z,31.10
2019-01-25T02:10:14.469Z,30.35
2019-01-25T02:12:40.528Z,30.60
2019-01-25T02:15:09.388Z,30.88
2019-01-25T02:17:35.443Z,30.50
2019-01-25T02:20:02.305Z,30.57
2019-01-25T02:22:28.388Z,30.35
2019-01-25T02:24:54.724Z,31.23
2019-01-25T02:27:20.775Z,30.57
2019-01-25T02:29:46.808Z,30.20
2019-01-25T02:32:12.847Z,30.02
2019-01-25T02:34:38.908Z,28.30
2019-01-25T02:37:04.948Z,30.35
2019-01-25T02:39:31.026Z,28.57
2019-01-25T02:41:57.060Z,29.63
2019-01-25T02:44:23.100Z,29.40
2019-01-25T02:46:51.737Z,29.45
2019-01-25T02:49:17.963Z,29.10
2019-01-25T02:51:44.044Z,30.10
2019-01-25T02:54:10.130Z,30.17
2019-01-25T02:56:37.438Z,30.65
2019-01-25T02:59:04.794Z,30.92
2019-01-25T03:01:30.916Z,28.90
2019-01-25T03:03:56.958Z,28.73
2019-01-25T03:06:23.010Z,29.10
2019-01-25T03:08:49.380Z,30.43
2019-01-25T03:11:15.421Z,30.77
2019-01-25T03:13:41.461Z,30.88
2019-01-25T03:16:07.592Z,31.10
2019-01-25T03:18:33.723Z,31.70
2019-01-25T03:20:59.766Z,29.92
2019-01-25T03:23:25.826Z,31.07
2019-01-25T03:25:51.867Z,30.20
2019-01-25T03:28:17.899Z,29.77
2019-01-25T03:30:43.953Z,30.75
2019-01-25T03:33:10.055Z,30.30
2019-01-25T03:35:36.156Z,30.80
2019-01-25T03:38:02.301Z,30.55
2019-01-25T03:40:28.455Z,30.50
2019-01-25T03:42:54.797Z,31.85
2019-01-25T03:45:21.498Z,30.85
2019-01-25T03:47:47.773Z,30.40
2019-01-25T03:50:19.586Z,29.82
2019-01-25T03:52:45.613Z,29.60
2019-01-25T03:55:12.888Z,28.35
2019-01-25T03:57:38.937Z,27.95
2019-01-25T04:00:08.777Z,29.15
2019-01-25T04:02:34.832Z,27.52
2019-01-25T04:05:00.880Z,27.35
2019-01-25T04:07:26.913Z,27.55
2019-01-25T04:09:53.087Z,27.90
2019-01-25T04:12:19.128Z,28.40
2019-01-25T04:14:45.175Z,28.12
2019-01-25T04:17:11.212Z,28.20
2019-01-25T04:19:37.244Z,29.57
2019-01-25T04:22:03.786Z,28.05
2019-01-25T04:24:29.909Z,27.20
2019-01-25T04:26:55.939Z,27.90
2019-01-25T04:29:21.978Z,28.50
2019-01-25T04:31:48.206Z,27.80
2019-01-25T04:34:14.244Z,28.73
2019-01-25T04:36:40.300Z,27.87
2019-01-25T04:39:07.079Z,28.65
2019-01-25T04:41:33.105Z,27.93
2019-01-25T04:43:59.184Z,27.30
2019-01-25T04:46:25.261Z,26.82
2019-01-25T04:48:51.343Z,25.72
2019-01-25T04:51:17.399Z,27.27
2019-01-25T04:53:43.462Z,26.65
2019-01-25T04:56:09.624Z,26.57
2019-01-25T04:58:35.691Z,26.37
2019-01-25T05:01:04.730Z,28.10
2019-01-25T05:03:30.778Z,26.35
2019-01-25T05:05:56.808Z,26.20
2019-01-25T05:08:23.099Z,26.37
2019-01-25T05:10:49.162Z,27.27
2019-01-25T05:13:15.492Z,27.02
2019-01-25T05:15:41.658Z,25.30
2019-01-25T05:18:07.965Z,27.20
2019-01-25T05:20:34.113Z,26.52
2019-01-25T05:23:05.234Z,26.12
2019-01-25T05:25:31.632Z,26.42
2019-01-25T05:28:15.570Z,25.35
2019-01-25T05:30:58.749Z,25.65
2019-01-25T05:33:24.833Z,25.97
2019-01-25T05:35:51.016Z,26.50
2019-01-25T05:38:17.084Z,27.17
2019-01-25T05:40:43.136Z,26.77
2019-01-25T05:43:10.380Z,26.75
2019-01-25T05:45:42.207Z,26.48
2019-01-25T05:48:08.246Z,25.10
2019-01-25T05:50:34.337Z,26.10
2019-01-25T05:53:00.647Z,26.17
2019-01-25T05:55:26.696Z,25.97
2019-01-25T05:57:58.479Z,26.35
2019-01-25T06:00:29.239Z,26.07
2019-01-25T06:03:00.972Z,25.20
2019-01-25T06:05:27.000Z,26.07
2019-01-25T06:07:53.106Z,26.35
2019-01-25T06:10:19.216Z,26.00
2019-01-25T06:12:50.511Z,25.80
2019-01-25T06:15:16.568Z,26.10
2019-01-25T06:17:42.586Z,25.32
2019-01-25T06:20:10.604Z,28.05
2019-01-25T06:22:36.705Z,26.00
2019-01-25T06:25:05.373Z,26.07
2019-01-25T06:27:37.549Z,26.50
2019-01-25T06:30:12.386Z,25.97
2019-01-25T06:32:38.525Z,26.20
2019-01-25T06:35:06.489Z,25.95
2019-01-25T06:37:32.593Z,26.05
2019-01-25T06:39:58.676Z,23.00
2019-01-25T06:42:24.848Z,23.62
2019-01-25T06:44:51.081Z,23.38
2019-01-25T06:47:17.205Z,24.90
2019-01-25T06:49:43.375Z,24.82
2019-01-25T06:52:10.675Z,25.25
2019-01-25T06:54:36.690Z,25.32
2019-01-25T06:57:04.760Z,26.70
2019-01-25T06:59:32.716Z,27.27
2019-01-25T07:02:01.091Z,27.90
2019-01-25T07:04:27.210Z,27.82
2019-01-25T07:06:53.250Z,27.40
2019-01-25T07:09:19.336Z,27.37
2019-01-25T07:11:51.499Z,27.15
2019-01-25T07:14:13.728Z,29.35
2019-01-25T07:16:39.824Z,27.73
2019-01-25T07:19:05.893Z,28.80
2019-01-25T07:21:31.957Z,27.75
2019-01-25T07:23:58.024Z,28.37
2019-01-25T07:26:24.088Z,30.48
2019-01-25T07:28:50.460Z,29.23
2019-01-25T07:31:16.512Z,29.35
2019-01-25T07:33:42.722Z,29.18
2019-01-25T07:36:08.849Z,30.90
2019-01-25T07:38:35.074Z,27.10
2019-01-25T07:41:01.152Z,27.62
2019-01-25T07:43:27.270Z,27.50
2019-01-25T07:45:53.337Z,27.20
2019-01-25T07:48:19.523Z,26.20
2019-01-25T07:50:45.632Z,24.70
2019-01-25T07:53:11.721Z,27.00
2019-01-25T07:55:37.885Z,25.55
2019-01-25T07:58:04.113Z,26.13
2019-01-25T08:00:30.237Z,26.00
2019-01-25T08:02:56.370Z,25.80
2019-01-25T08:05:22.396Z,24.20
2019-01-25T08:07:48.459Z,25.20
2019-01-25T08:10:16.982Z,24.00
2019-01-25T08:12:43.089Z,22.98
2019-01-25T08:15:15.989Z,23.12
2019-01-25T08:17:42.059Z,39.13
2019-01-25T08:20:10.373Z,22.40
2019-01-25T08:22:36.423Z,21.75
2019-01-25T08:25:04.154Z,21.87
2019-01-25T08:27:30.375Z,21.40
2019-01-25T08:29:56.598Z,21.07
2019-01-25T08:32:24.062Z,21.30
2019-01-25T08:34:50.258Z,21.40
2019-01-25T08:37:16.431Z,21.60
2019-01-25T08:39:42.593Z,21.75
2019-01-25T08:42:15.245Z,22.65
2019-01-25T08:44:36.829Z,21.95
2019-01-25T08:47:03.008Z,21.87
2019-01-25T08:49:29.368Z,22.90
2019-01-25T08:51:55.527Z,22.60
2019-01-25T08:54:22.955Z,22.45
2019-01-25T08:56:49.189Z,51.47
2019-01-25T08:59:15.683Z,22.60
2019-01-25T09:01:42.100Z,21.55
2019-01-25T09:04:08.177Z,22.40
2019-01-25T09:06:34.213Z,22.43
2019-01-25T09:09:00.264Z,21.00
2019-01-25T09:11:26.344Z,22.25
2019-01-25T09:13:52.393Z,21.93
2019-01-25T09:16:18.438Z,21.30
2019-01-25T09:18:44.525Z,21.73
2019-01-25T09:21:10.763Z,21.35
2019-01-25T09:23:36.777Z,22.35
2019-01-25T09:26:02.936Z,22.10
2019-01-25T09:28:29.241Z,22.65
2019-01-25T09:30:55.288Z,22.70
2019-01-25T09:33:21.426Z,20.97
2019-01-25T09:35:47.490Z,21.17
2019-01-25T09:38:13.711Z,21.42
2019-01-25T09:40:39.976Z,20.90
2019-01-25T09:43:06.014Z,20.37
2019-01-25T09:45:32.135Z,21.55
2019-01-25T09:47:58.288Z,20.30
2019-01-25T09:50:24.428Z,21.37
2019-01-25T09:52:50.491Z,20.52
2019-01-25T09:55:18.641Z,32.95
2019-01-25T09:57:44.788Z,22.22
2019-01-25T10:00:22.953Z,21.00
2019-01-25T10:02:49.004Z,19.32
2019-01-25T10:05:15.027Z,20.10
2019-01-25T10:07:41.170Z,20.72
2019-01-25T10:10:08.494Z,19.25
2019-01-25T10:12:38.832Z,21.73
2019-01-25T10:15:06.404Z,20.45
2019-01-25T10:17:32.451Z,19.60
2019-01-25T10:19:58.482Z,19.92
2019-01-25T10:22:24.611Z,20.10
2019-01-25T10:24:50.690Z,21.10
2019-01-25T10:27:16.723Z,21.15
2019-01-25T10:29:42.764Z,20.60
2019-01-25T10:32:08.999Z,20.68
2019-01-25T10:34:35.082Z,21.45
2019-01-25T10:37:01.121Z,22.05
2019-01-25T10:39:27.284Z,22.98
2019-01-25T10:41:53.338Z,23.80
2019-01-25T10:44:19.364Z,23.20
2019-01-25T10:46:45.596Z,23.65
2019-01-25T10:49:11.654Z,23.90
2019-01-25T10:51:37.697Z,23.70
2019-01-25T10:54:04.256Z,24.95
2019-01-25T10:56:30.465Z,26.40
2019-01-25T10:58:56.509Z,26.87
2019-01-25T11:01:22.555Z,27.65
2019-01-25T11:03:48.855Z,28.85
2019-01-25T11:06:17.723Z,27.65
2019-01-25T11:08:43.945Z,26.70
2019-01-25T11:11:10.869Z,28.47
2019-01-25T11:13:36.904Z,29.72
2019-01-25T11:16:03.772Z,29.00
2019-01-25T11:18:29.906Z,30.68
2019-01-25T11:20:55.924Z,28.40
2019-01-25T11:23:21.955Z,29.70
2019-01-25T11:25:48.323Z,28.27
2019-01-25T11:28:14.452Z,27.10
2019-01-25T11:30:40.564Z,27.30
2019-01-25T11:33:06.804Z,27.05
2019-01-25T11:35:33.055Z,25.70
2019-01-25T11:37:59.167Z,26.57
2019-01-25T11:40:36.869Z,25.47
2019-01-25T11:43:08.425Z,25.25
2019-01-25T11:45:31.373Z,24.87
2019-01-25T11:47:58.721Z,25.90
2019-01-25T11:50:24.902Z,27.17
2019-01-25T11:52:51.008Z,25.65
2019-01-25T11:55:17.903Z,25.90
2019-01-25T11:57:44.045Z,26.85
2019-01-25T12:00:22.558Z,26.00
2019-01-25T12:02:49.528Z,26.15
2019-01-25T12:05:18.456Z,27.25
2019-01-25T12:07:44.746Z,25.82
2019-01-25T12:10:13.781Z,25.23
2019-01-25T12:12:39.976Z,26.82
2019-01-25T12:15:10.345Z,26.10
2019-01-25T12:17:36.392Z,27.22
2019-01-25T12:20:06.048Z,27.42
2019-01-25T12:22:32.216Z,26.90
2019-01-25T12:24:58.337Z,27.65
2019-01-25T12:27:24.375Z,28.12
2019-01-25T12:29:50.408Z,30.30
2019-01-25T12:32:18.385Z,29.55
2019-01-25T12:34:44.419Z,29.05
2019-01-25T12:37:10.459Z,29.55
2019-01-25T12:39:36.538Z,30.15
2019-01-25T12:42:03.175Z,30.97
2019-01-25T12:44:29.219Z,31.90
2019-01-25T12:46:55.249Z,31.10
2019-01-25T12:49:21.484Z,32.03
2019-01-25T12:51:47.595Z,33.63
2019-01-25T12:54:13.738Z,34.60
2019-01-25T12:56:39.796Z,33.70
2019-01-25T12:59:05.942Z,34.85
2019-01-25T13:01:35.000Z,33.90
2019-01-25T13:04:00.110Z,34.00
2019-01-25T13:06:26.147Z,34.55
2019-01-25T13:08:52.293Z,34.58
2019-01-25T13:11:18.340Z,34.05
2019-01-25T13:13:44.381Z,33.40
2019-01-25T13:16:10.433Z,33.90
2019-01-25T13:18:36.541Z,32.15
2019-01-25T13:21:02.993Z,32.45
2019-01-25T13:23:29.088Z,32.55
2019-01-25T13:25:55.274Z,32.42
2019-01-25T13:28:21.343Z,35.30
2019-01-25T13:30:47.477Z,35.73
2019-01-25T13:33:13.654Z,34.55
2019-01-25T13:35:39.902Z,34.70
2019-01-25T13:38:06.041Z,34.20
2019-01-25T13:40:32.547Z,35.80
2019-01-25T13:42:58.789Z,37.38
2019-01-25T13:45:25.177Z,36.42
2019-01-25T13:47:51.493Z,35.75
2019-01-25T13:50:19.856Z,36.63
2019-01-25T13:52:45.972Z,36.35
2019-01-25T13:55:14.114Z,36.00
2019-01-25T13:57:40.233Z,34.90
2019-01-25T14:00:15.806Z,35.47
2019-01-25T14:02:44.246Z,35.20
2019-01-25T14:05:10.475Z,35.85
2019-01-25T14:07:36.605Z,36.05
2019-01-25T14:10:15.110Z,37.50
2019-01-25T14:12:41.263Z,37.70
2019-01-25T14:15:08.205Z,37.87
2019-01-25T14:17:34.328Z,37.75
2019-01-25T14:20:00.539Z,38.10
2019-01-25T14:22:26.685Z,39.50
2019-01-25T14:24:52.732Z,39.75
2019-01-25T14:27:18.776Z,39.60
2019-01-25T14:29:44.812Z,40.48
2019-01-25T14:32:10.986Z,41.37
2019-01-25T14:34:37.058Z,39.98
2019-01-25T14:37:03.540Z,40.92
2019-01-25T14:39:29.644Z,39.70
2019-01-25T14:41:55.685Z,41.68
2019-01-25T14:44:21.735Z,41.00
2019-01-25T14:46:47.913Z,40.60
2019-01-25T14:49:13.972Z,41.20
2019-01-25T14:51:40.023Z,42.30
2019-01-25T14:54:06.067Z,43.05
2019-01-25T14:56:32.129Z,43.00
2019-01-25T14:58:58.174Z,43.52
2019-01-25T15:01:24.191Z,41.33
2019-01-25T15:03:50.262Z,42.58
2019-01-25T15:06:16.312Z,44.35
2019-01-25T15:08:42.525Z,45.30
2019-01-25T15:11:08.597Z,44.20
2019-01-25T15:13:34.641Z,42.23
2019-01-25T15:16:00.797Z,43.73
2019-01-25T15:18:26.845Z,45.35
2019-01-25T15:20:53.044Z,43.35
2019-01-25T15:23:19.099Z,44.00
2019-01-25T15:25:45.281Z,44.80
2019-01-25T15:28:11.358Z,45.17
2019-01-25T15:30:37.414Z,42.48
2019-01-25T15:33:04.016Z,39.37
2019-01-25T15:35:30.162Z,39.80
2019-01-25T15:37:56.211Z,38.80
2019-01-25T15:40:22.352Z,38.57
2019-01-25T15:42:48.436Z,38.23
2019-01-25T15:45:16.470Z,36.85
2019-01-25T15:47:42.656Z,38.25
2019-01-25T15:50:15.250Z,36.05
2019-01-25T15:52:41.488Z,36.68
2019-01-25T15:55:08.613Z,36.83
2019-01-25T15:57:34.749Z,36.88
2019-01-25T16:00:00.945Z,34.70
2019-01-25T16:02:26.973Z,36.30
2019-01-25T16:04:53.110Z,33.63
2019-01-25T16:07:19.364Z,33.05
2019-01-25T16:09:45.409Z,34.08
2019-01-25T16:12:11.467Z,32.85
2019-01-25T16:14:37.556Z,34.63
2019-01-25T16:17:03.608Z,35.25
2019-01-25T16:19:29.684Z,36.13
2019-01-25T16:21:56.322Z,34.75
2019-01-25T16:24:22.516Z,35.33
2019-01-25T16:26:49.613Z,34.30
2019-01-25T16:29:15.860Z,35.55
2019-01-25T16:31:41.951Z,34.25
2019-01-25T16:34:07.988Z,35.80
2019-01-25T16:36:34.143Z,35.55
2019-01-25T16:39:00.168Z,36.33
2019-01-25T16:41:26.220Z,35.30
2019-01-25T16:43:52.357Z,35.60
2019-01-25T16:46:18.402Z,35.43
2019-01-25T16:48:44.439Z,34.05
2019-01-25T16:51:10.505Z,36.75
2019-01-25T16:53:36.728Z,37.15
2019-01-25T16:56:03.646Z,35.58
2019-01-25T16:58:29.801Z,35.30
2019-01-25T17:00:55.849Z,34.53
2019-01-25T17:03:21.916Z,35.13
2019-01-25T17:05:48.129Z,34.25
2019-01-25T17:08:14.199Z,35.98
2019-01-25T17:10:41.209Z,35.45
2019-01-25T17:13:07.817Z,34.60
2019-01-25T17:15:34.053Z,37.77
2019-01-25T17:18:00.900Z,36.08
2019-01-25T17:20:28.723Z,34.43
2019-01-25T17:22:54.963Z,34.48
2019-01-25T17:25:20.997Z,35.35
2019-01-25T17:27:47.703Z,35.45
2019-01-25T17:30:25.721Z,34.33
2019-01-25T17:32:53.880Z,34.08
2019-01-25T17:35:19.918Z,34.18
2019-01-25T17:37:46.082Z,33.00
2019-01-25T17:40:15.477Z,34.83
2019-01-25T17:42:41.676Z,34.03
2019-01-25T17:45:08.747Z,35.95
2019-01-25T17:47:34.820Z,35.10
2019-01-25T17:50:01.283Z,35.95
2019-01-25T17:52:27.316Z,35.40
2019-01-25T17:54:53.380Z,34.67
2019-01-25T17:57:19.558Z,34.33
2019-01-25T17:59:45.632Z,34.47
2019-01-25T18:02:11.711Z,35.73
2019-01-25T18:04:37.764Z,34.15
2019-01-25T18:07:03.800Z,34.83
2019-01-25T18:09:29.865Z,35.92
2019-01-25T18:11:56.009Z,34.97
2019-01-25T18:14:22.172Z,34.70
2019-01-25T18:16:48.248Z,33.63
2019-01-25T18:19:14.419Z,33.90
2019-01-25T18:21:40.615Z,35.38
2019-01-25T18:24:06.684Z,34.50
2019-01-25T18:26:32.765Z,34.60
2019-01-25T18:28:59.095Z,33.25
2019-01-25T18:31:26.988Z,33.58
2019-01-25T18:33:53.209Z,30.97
2019-01-25T18:36:19.295Z,31.05
2019-01-25T18:38:45.459Z,33.10
2019-01-25T18:41:11.495Z,32.58
2019-01-25T18:43:37.607Z,33.98
2019-01-25T18:46:16.396Z,31.85
2019-01-25T18:48:42.508Z,32.88
2019-01-25T18:51:08.617Z,31.40
2019-01-25T18:53:34.685Z,35.38
2019-01-25T18:56:00.961Z,33.75
2019-01-25T18:58:27.105Z,31.77
2019-01-25T19:00:54.197Z,32.97
2019-01-25T19:03:20.236Z,31.37
2019-01-25T19:05:46.298Z,32.93
2019-01-25T19:08:12.366Z,33.85
2019-01-25T19:10:38.393Z,32.80
2019-01-25T19:13:04.454Z,32.38
2019-01-25T19:15:31.153Z,32.73
2019-01-25T19:18:00.348Z,32.10
2019-01-25T19:20:26.429Z,32.38
2019-01-25T19:22:52.482Z,32.33
2019-01-25T19:25:18.812Z,31.40
2019-01-25T19:27:44.871Z,31.73
2019-01-25T19:30:20.558Z,31.63
2019-01-25T19:32:46.976Z,32.58
2019-01-25T19:35:13.525Z,31.75
2019-01-25T19:37:39.606Z,32.70
2019-01-25T19:40:09.538Z,33.73
2019-01-25T19:42:35.670Z,33.70
2019-01-25T19:45:11.678Z,34.23
2019-01-25T19:47:32.748Z,36.17
2019-01-25T19:49:58.903Z,34.85
2019-01-25T19:52:24.959Z,35.90
2019-01-25T19:54:51.053Z,33.67
2019-01-25T19:57:17.396Z,32.50
2019-01-25T19:59:43.467Z,34.83
2019-01-25T20:02:09.654Z,36.03
2019-01-25T20:04:36.039Z,36.55
2019-01-25T20:07:02.566Z,36.93
2019-01-25T20:09:28.656Z,36.30
2019-01-25T20:11:54.759Z,37.00
2019-01-25T20:14:20.928Z,36.15
2019-01-25T20:16:46.945Z,37.33
2019-01-25T20:19:13.103Z,38.40
2019-01-25T20:21:39.227Z,37.15
2019-01-25T20:24:05.265Z,38.57
2019-01-25T20:26:31.351Z,38.28
2019-01-25T20:28:57.573Z,38.65
2019-01-25T20:31:23.617Z,37.98
2019-01-25T20:33:49.827Z,39.10
2019-01-25T20:36:15.914Z,39.63
2019-01-25T20:38:41.947Z,39.92
2019-01-25T20:41:07.976Z,40.03
2019-01-25T20:43:34.052Z,38.80
2019-01-25T20:46:00.272Z,41.40
2019-01-25T20:48:26.503Z,42.07
2019-01-25T20:50:52.929Z,42.67
2019-01-25T20:53:18.964Z,40.73
2019-01-25T20:55:45.051Z,41.55
2019-01-25T20:58:11.095Z,42.25
2019-01-25T21:00:38.729Z,42.33
2019-01-25T21:03:06.697Z,42.83
2019-01-25T21:05:32.841Z,43.98
2019-01-25T21:07:59.149Z,42.60
2019-01-25T21:10:25.419Z,42.90
2019-01-25T21:12:52.289Z,43.97
2019-01-25T21:15:20.681Z,44.73
2019-01-25T21:17:47.251Z,44.35
2019-01-25T21:20:18.662Z,44.23
2019-01-25T21:22:44.705Z,44.07
2019-01-25T21:25:10.944Z,45.00
2019-01-25T21:27:37.349Z,43.00
2019-01-25T21:30:08.291Z,43.38
2019-01-25T21:32:34.399Z,41.83
2019-01-25T21:35:00.509Z,44.53
2019-01-25T21:37:26.632Z,46.60
2019-01-25T21:39:52.728Z,45.92
2019-01-25T21:42:18.788Z,45.25
2019-01-25T21:44:44.868Z,42.90
2019-01-25T21:47:10.920Z,45.23
2019-01-25T21:49:36.952Z,44.10
2019-01-25T21:52:02.997Z,46.08
2019-01-25T21:54:29.042Z,44.13
2019-01-25T21:56:55.076Z,44.27
2019-01-25T21:59:21.408Z,43.95
2019-01-25T22:01:47.514Z,44.42
2019-01-25T22:04:15.491Z,44.60
2019-01-25T22:06:41.520Z,44.63
2019-01-25T22:09:07.736Z,44.27
2019-01-25T22:11:34.029Z,43.20
2019-01-25T22:14:00.056Z,42.70
2019-01-25T22:16:26.090Z,42.43
2019-01-25T22:18:52.328Z,43.70
2019-01-25T22:21:18.622Z,41.90
2019-01-25T22:23:44.694Z,40.60
2019-01-25T22:26:10.786Z,41.77
2019-01-25T22:28:36.848Z,40.92
2019-01-25T22:31:02.929Z,40.92
2019-01-25T22:33:29.053Z,41.20
2019-01-25T22:35:56.246Z,39.83
2019-01-25T22:38:22.417Z,38.85
2019-01-25T22:40:48.660Z,41.40
2019-01-25T22:43:14.747Z,39.70
2019-01-25T22:45:42.063Z,39.50
2019-01-25T22:48:08.288Z,37.78
2019-01-25T22:50:34.314Z,40.50
2019-01-25T22:53:00.594Z,40.52
2019-01-25T22:55:26.732Z,40.05
2019-01-25T22:57:52.757Z,39.60
2019-01-25T23:00:59.675Z,39.15
2019-01-25T23:03:44.962Z,39.40
2019-01-25T23:06:37.084Z,39.53
2019-01-25T23:09:15.971Z,38.35
2019-01-25T23:11:42.020Z,36.95
2019-01-25T23:14:08.356Z,37.20
2019-01-25T23:16:34.506Z,36.25
2019-01-25T23:19:00.829Z,38.45
2019-01-25T23:21:26.945Z,35.10
2019-01-25T23:23:53.090Z,36.00
2019-01-25T23:26:19.253Z,34.33
2019-01-25T23:28:45.335Z,33.30
2019-01-25T23:31:11.476Z,31.85
2019-01-25T23:33:37.605Z,32.75
2019-01-25T23:36:03.740Z,35.25
2019-01-25T23:38:29.782Z,34.53
2019-01-25T23:40:55.925Z,33.50
2019-01-25T23:43:21.970Z,33.20
2019-01-25T23:45:47.998Z,32.45
2019-01-25T23:48:14.052Z,32.17
2019-01-25T23:50:40.111Z,31.80
2019-01-25T23:53:06.162Z,31.77
2019-01-25T23:55:32.661Z,30.85
2019-01-25T23:57:58.684Z,32.03
